sensor_id;sensor_type;location;lat;lon;timestamp;P1;durP1;ratioP1;P2;durP2;ratioP2
38487;SDS011;57384;51.986;4.458;2022-11-20T00:00:09;4.93;;;1.10;;
38487;SDS011;57384;51.986;4.458;2022-11-20T00:02:53;3.55;;;0.98;;
38487;SDS011;57384;51.986;4.458;2022-11-20T00:05:37;4.38;;;1.20;;
38487;SDS011;57384;51.986;4.458;2022-11-20T00:08:21;2.63;;;1.20;;
38487;SDS011;57384;51.986;4.458;2022-11-20T00:11:06;6.10;;;1.15;;
38487;SDS011;57384;51.986;4.458;2022-11-20T00:13:53;3.50;;;1.20;;
38487;SDS011;57384;51.986;4.458;2022-11-20T00:16:39;3.75;;;1.10;;
38487;SDS011;57384;51.986;4.458;2022-11-20T00:19:23;5.15;;;1.20;;
38487;SDS011;57384;51.986;4.458;2022-11-20T00:22:07;6.03;;;1.58;;
38487;SDS011;57384;51.986;4.458;2022-11-20T00:24:52;4.93;;;1.35;;
38487;SDS011;57384;51.986;4.458;2022-11-20T00:27:36;6.55;;;1.70;;
38487;SDS011;57384;51.986;4.458;2022-11-20T00:30:20;3.88;;;1.20;;
38487;SDS011;57384;51.986;4.458;2022-11-20T00:33:07;5.43;;;1.40;;
38487;SDS011;57384;51.986;4.458;2022-11-20T00:35:51;6.20;;;1.08;;
38487;SDS011;57384;51.986;4.458;2022-11-20T00:38:35;4.95;;;1.23;;
38487;SDS011;57384;51.986;4.458;2022-11-20T00:41:20;5.55;;;1.48;;
38487;SDS011;57384;51.986;4.458;2022-11-20T00:44:04;6.78;;;1.05;;
38487;SDS011;57384;51.986;4.458;2022-11-20T00:46:48;5.10;;;1.27;;
38487;SDS011;57384;51.986;4.458;2022-11-20T00:49:33;5.50;;;1.30;;
38487;SDS011;57384;51.986;4.458;2022-11-20T00:52:17;4.72;;;0.98;;
38487;SDS011;57384;51.986;4.458;2022-11-20T00:55:01;5.00;;;1.52;;
38487;SDS011;57384;51.986;4.458;2022-11-20T00:57:45;4.78;;;1.02;;
38487;SDS011;57384;51.986;4.458;2022-11-20T01:00:29;2.80;;;0.80;;
38487;SDS011;57384;51.986;4.458;2022-11-20T01:03:13;7.40;;;1.30;;
38487;SDS011;57384;51.986;4.458;2022-11-20T01:06:01;6.00;;;0.93;;
38487;SDS011;57384;51.986;4.458;2022-11-20T01:08:50;5.28;;;0.90;;
38487;SDS011;57384;51.986;4.458;2022-11-20T01:11:37;5.82;;;0.82;;
38487;SDS011;57384;51.986;4.458;2022-11-20T01:14:26;4.50;;;1.00;;
38487;SDS011;57384;51.986;4.458;2022-11-20T01:17:10;4.97;;;1.10;;
38487;SDS011;57384;51.986;4.458;2022-11-20T01:19:54;4.82;;;1.25;;
38487;SDS011;57384;51.986;4.458;2022-11-20T01:22:38;3.17;;;0.90;;
38487;SDS011;57384;51.986;4.458;2022-11-20T01:25:22;7.70;;;1.30;;
38487;SDS011;57384;51.986;4.458;2022-11-20T01:28:06;4.68;;;1.48;;
38487;SDS011;57384;51.986;4.458;2022-11-20T01:30:50;3.70;;;1.30;;
38487;SDS011;57384;51.986;4.458;2022-11-20T01:33:35;5.97;;;1.05;;
38487;SDS011;57384;51.986;4.458;2022-11-20T01:36:19;3.55;;;1.00;;
38487;SDS011;57384;51.986;4.458;2022-11-20T01:41:58;7.40;;;1.90;;
38487;SDS011;57384;51.986;4.458;2022-11-20T01:44:51;3.78;;;0.88;;
38487;SDS011;57384;51.986;4.458;2022-11-20T01:47:39;6.15;;;1.00;;
38487;SDS011;57384;51.986;4.458;2022-11-20T01:50:28;4.03;;;0.85;;
38487;SDS011;57384;51.986;4.458;2022-11-20T01:53:13;3.03;;;0.88;;
38487;SDS011;57384;51.986;4.458;2022-11-20T01:56:00;5.85;;;0.70;;
38487;SDS011;57384;51.986;4.458;2022-11-20T01:58:48;6.68;;;1.65;;
38487;SDS011;57384;51.986;4.458;2022-11-20T02:01:37;4.78;;;0.93;;
38487;SDS011;57384;51.986;4.458;2022-11-20T02:04:21;4.05;;;0.73;;
38487;SDS011;57384;51.986;4.458;2022-11-20T02:07:09;3.75;;;1.17;;
38487;SDS011;57384;51.986;4.458;2022-11-20T02:09:54;3.80;;;1.25;;
38487;SDS011;57384;51.986;4.458;2022-11-20T02:12:39;5.35;;;1.23;;
38487;SDS011;57384;51.986;4.458;2022-11-20T02:15:22;4.95;;;1.33;;
38487;SDS011;57384;51.986;4.458;2022-11-20T02:18:07;4.18;;;1.27;;
38487;SDS011;57384;51.986;4.458;2022-11-20T02:20:54;7.00;;;0.93;;
38487;SDS011;57384;51.986;4.458;2022-11-20T02:24:17;5.70;;;1.45;;
38487;SDS011;57384;51.986;4.458;2022-11-20T02:27:03;4.85;;;0.88;;
38487;SDS011;57384;51.986;4.458;2022-11-20T02:29:54;4.95;;;0.82;;
38487;SDS011;57384;51.986;4.458;2022-11-20T02:32:41;3.47;;;0.80;;
38487;SDS011;57384;51.986;4.458;2022-11-20T02:38:09;5.70;;;1.27;;
38487;SDS011;57384;51.986;4.458;2022-11-20T02:40:54;3.58;;;1.05;;
38487;SDS011;57384;51.986;4.458;2022-11-20T02:43:38;4.22;;;1.08;;
38487;SDS011;57384;51.986;4.458;2022-11-20T02:46:22;5.15;;;1.40;;
38487;SDS011;57384;51.986;4.458;2022-11-20T02:49:06;4.53;;;1.30;;
38487;SDS011;57384;51.986;4.458;2022-11-20T02:51:50;5.95;;;1.92;;
38487;SDS011;57384;51.986;4.458;2022-11-20T02:54:34;4.70;;;1.15;;
38487;SDS011;57384;51.986;4.458;2022-11-20T02:57:18;3.85;;;0.93;;
38487;SDS011;57384;51.986;4.458;2022-11-20T03:00:03;3.85;;;0.93;;
38487;SDS011;57384;51.986;4.458;2022-11-20T03:02:48;3.83;;;1.02;;
38487;SDS011;57384;51.986;4.458;2022-11-20T03:05:32;4.18;;;0.80;;
38487;SDS011;57384;51.986;4.458;2022-11-20T03:08:16;2.50;;;0.47;;
38487;SDS011;57384;51.986;4.458;2022-11-20T03:11:06;5.03;;;1.17;;
38487;SDS011;57384;51.986;4.458;2022-11-20T03:13:51;4.55;;;0.75;;
38487;SDS011;57384;51.986;4.458;2022-11-20T03:16:35;5.07;;;1.20;;
38487;SDS011;57384;51.986;4.458;2022-11-20T03:19:19;4.93;;;0.82;;
38487;SDS011;57384;51.986;4.458;2022-11-20T03:22:03;8.40;;;1.20;;
38487;SDS011;57384;51.986;4.458;2022-11-20T03:24:47;4.38;;;1.40;;
38487;SDS011;57384;51.986;4.458;2022-11-20T03:27:33;7.82;;;1.58;;
38487;SDS011;57384;51.986;4.458;2022-11-20T03:30:18;3.27;;;1.10;;
38487;SDS011;57384;51.986;4.458;2022-11-20T03:33:02;6.20;;;1.02;;
38487;SDS011;57384;51.986;4.458;2022-11-20T03:35:46;8.73;;;1.98;;
38487;SDS011;57384;51.986;4.458;2022-11-20T03:38:30;8.20;;;1.23;;
38487;SDS011;57384;51.986;4.458;2022-11-20T03:41:16;4.85;;;1.45;;
38487;SDS011;57384;51.986;4.458;2022-11-20T03:44:06;6.03;;;1.27;;
38487;SDS011;57384;51.986;4.458;2022-11-20T03:46:51;4.35;;;0.82;;
38487;SDS011;57384;51.986;4.458;2022-11-20T03:49:35;5.22;;;1.13;;
38487;SDS011;57384;51.986;4.458;2022-11-20T03:52:19;5.00;;;1.45;;
38487;SDS011;57384;51.986;4.458;2022-11-20T03:55:07;5.35;;;1.58;;
38487;SDS011;57384;51.986;4.458;2022-11-20T03:57:51;6.35;;;1.60;;
38487;SDS011;57384;51.986;4.458;2022-11-20T04:00:35;6.63;;;1.63;;
38487;SDS011;57384;51.986;4.458;2022-11-20T04:03:20;7.90;;;1.20;;
38487;SDS011;57384;51.986;4.458;2022-11-20T04:06:11;4.28;;;1.08;;
38487;SDS011;57384;51.986;4.458;2022-11-20T04:09:03;4.40;;;1.48;;
38487;SDS011;57384;51.986;4.458;2022-11-20T04:11:48;2.80;;;0.75;;
38487;SDS011;57384;51.986;4.458;2022-11-20T04:14:32;7.30;;;1.00;;
38487;SDS011;57384;51.986;4.458;2022-11-20T04:17:16;6.10;;;1.42;;
38487;SDS011;57384;51.986;4.458;2022-11-20T04:20:00;5.38;;;1.20;;
38487;SDS011;57384;51.986;4.458;2022-11-20T04:22:45;4.22;;;0.90;;
38487;SDS011;57384;51.986;4.458;2022-11-20T04:25:30;3.70;;;1.30;;
38487;SDS011;57384;51.986;4.458;2022-11-20T04:28:14;5.32;;;1.25;;
38487;SDS011;57384;51.986;4.458;2022-11-20T04:31:02;4.38;;;1.10;;
38487;SDS011;57384;51.986;4.458;2022-11-20T04:34:01;5.32;;;1.10;;
38487;SDS011;57384;51.986;4.458;2022-11-20T04:36:46;7.13;;;1.55;;
38487;SDS011;57384;51.986;4.458;2022-11-20T04:39:30;8.35;;;2.38;;
38487;SDS011;57384;51.986;4.458;2022-11-20T04:42:14;6.32;;;2.00;;
38487;SDS011;57384;51.986;4.458;2022-11-20T04:45:03;2.55;;;0.68;;
38487;SDS011;57384;51.986;4.458;2022-11-20T04:47:48;5.47;;;1.80;;
38487;SDS011;57384;51.986;4.458;2022-11-20T04:50:33;5.07;;;0.90;;
38487;SDS011;57384;51.986;4.458;2022-11-20T04:53:17;5.25;;;1.70;;
38487;SDS011;57384;51.986;4.458;2022-11-20T04:56:02;3.85;;;0.93;;
38487;SDS011;57384;51.986;4.458;2022-11-20T04:58:48;4.38;;;1.33;;
38487;SDS011;57384;51.986;4.458;2022-11-20T05:01:32;4.53;;;1.15;;
38487;SDS011;57384;51.986;4.458;2022-11-20T05:04:16;9.23;;;0.85;;
38487;SDS011;57384;51.986;4.458;2022-11-20T05:07:00;3.38;;;0.88;;
38487;SDS011;57384;51.986;4.458;2022-11-20T05:09:44;6.13;;;1.70;;
38487;SDS011;57384;51.986;4.458;2022-11-20T05:12:28;5.70;;;1.10;;
38487;SDS011;57384;51.986;4.458;2022-11-20T05:15:12;5.47;;;0.90;;
38487;SDS011;57384;51.986;4.458;2022-11-20T05:17:56;5.90;;;1.50;;
38487;SDS011;57384;51.986;4.458;2022-11-20T05:20:40;5.13;;;1.25;;
38487;SDS011;57384;51.986;4.458;2022-11-20T05:23:25;2.88;;;0.75;;
38487;SDS011;57384;51.986;4.458;2022-11-20T05:26:17;3.53;;;0.95;;
38487;SDS011;57384;51.986;4.458;2022-11-20T05:29:02;6.20;;;1.20;;
38487;SDS011;57384;51.986;4.458;2022-11-20T05:31:47;5.88;;;1.45;;
38487;SDS011;57384;51.986;4.458;2022-11-20T05:34:31;4.72;;;0.88;;
38487;SDS011;57384;51.986;4.458;2022-11-20T05:37:15;4.28;;;1.23;;
38487;SDS011;57384;51.986;4.458;2022-11-20T05:39:59;4.47;;;0.95;;
38487;SDS011;57384;51.986;4.458;2022-11-20T05:42:43;5.88;;;1.88;;
38487;SDS011;57384;51.986;4.458;2022-11-20T05:45:28;3.42;;;1.13;;
38487;SDS011;57384;51.986;4.458;2022-11-20T05:48:12;4.95;;;1.25;;
38487;SDS011;57384;51.986;4.458;2022-11-20T05:50:57;5.95;;;1.60;;
38487;SDS011;57384;51.986;4.458;2022-11-20T05:53:45;4.75;;;1.60;;
38487;SDS011;57384;51.986;4.458;2022-11-20T05:56:29;8.30;;;1.48;;
38487;SDS011;57384;51.986;4.458;2022-11-20T05:59:13;5.18;;;1.25;;
38487;SDS011;57384;51.986;4.458;2022-11-20T06:01:57;5.82;;;1.45;;
38487;SDS011;57384;51.986;4.458;2022-11-20T06:04:41;4.93;;;1.30;;
38487;SDS011;57384;51.986;4.458;2022-11-20T06:07:25;8.85;;;2.55;;
38487;SDS011;57384;51.986;4.458;2022-11-20T06:10:09;5.57;;;1.75;;
38487;SDS011;57384;51.986;4.458;2022-11-20T06:12:56;4.50;;;1.30;;
38487;SDS011;57384;51.986;4.458;2022-11-20T06:15:41;5.30;;;1.27;;
38487;SDS011;57384;51.986;4.458;2022-11-20T06:18:25;8.30;;;2.55;;
38487;SDS011;57384;51.986;4.458;2022-11-20T06:21:12;3.75;;;0.88;;
38487;SDS011;57384;51.986;4.458;2022-11-20T06:23:58;3.05;;;1.15;;
38487;SDS011;57384;51.986;4.458;2022-11-20T06:26:42;7.05;;;1.65;;
38487;SDS011;57384;51.986;4.458;2022-11-20T06:29:26;8.45;;;2.00;;
38487;SDS011;57384;51.986;4.458;2022-11-20T06:32:10;3.70;;;1.55;;
38487;SDS011;57384;51.986;4.458;2022-11-20T06:34:54;2.92;;;1.08;;
38487;SDS011;57384;51.986;4.458;2022-11-20T06:37:38;9.02;;;1.75;;
38487;SDS011;57384;51.986;4.458;2022-11-20T06:40:23;6.75;;;1.75;;
38487;SDS011;57384;51.986;4.458;2022-11-20T06:43:07;6.35;;;1.40;;
38487;SDS011;57384;51.986;4.458;2022-11-20T06:48:39;5.20;;;1.38;;
38487;SDS011;57384;51.986;4.458;2022-11-20T06:51:24;6.05;;;1.88;;
38487;SDS011;57384;51.986;4.458;2022-11-20T06:54:08;5.55;;;1.17;;
38487;SDS011;57384;51.986;4.458;2022-11-20T06:56:53;6.30;;;1.52;;
38487;SDS011;57384;51.986;4.458;2022-11-20T06:59:37;7.20;;;1.60;;
38487;SDS011;57384;51.986;4.458;2022-11-20T07:02:21;5.32;;;1.67;;
38487;SDS011;57384;51.986;4.458;2022-11-20T07:05:05;8.82;;;1.83;;
38487;SDS011;57384;51.986;4.458;2022-11-20T07:07:49;7.40;;;1.80;;
38487;SDS011;57384;51.986;4.458;2022-11-20T07:10:34;5.50;;;1.60;;
38487;SDS011;57384;51.986;4.458;2022-11-20T07:13:18;7.25;;;1.48;;
38487;SDS011;57384;51.986;4.458;2022-11-20T07:16:03;10.27;;;2.47;;
38487;SDS011;57384;51.986;4.458;2022-11-20T07:18:49;7.60;;;1.55;;
38487;SDS011;57384;51.986;4.458;2022-11-20T07:21:36;3.15;;;1.00;;
38487;SDS011;57384;51.986;4.458;2022-11-20T07:24:20;4.35;;;1.35;;
38487;SDS011;57384;51.986;4.458;2022-11-20T07:27:04;7.57;;;1.95;;
38487;SDS011;57384;51.986;4.458;2022-11-20T07:29:49;5.13;;;1.92;;
38487;SDS011;57384;51.986;4.458;2022-11-20T07:32:33;6.10;;;1.52;;
38487;SDS011;57384;51.986;4.458;2022-11-20T07:35:17;9.10;;;3.03;;
38487;SDS011;57384;51.986;4.458;2022-11-20T07:38:01;8.55;;;2.47;;
38487;SDS011;57384;51.986;4.458;2022-11-20T07:40:45;4.70;;;1.52;;
38487;SDS011;57384;51.986;4.458;2022-11-20T07:43:32;5.13;;;1.52;;
38487;SDS011;57384;51.986;4.458;2022-11-20T07:46:16;4.93;;;1.75;;
38487;SDS011;57384;51.986;4.458;2022-11-20T07:49:00;9.95;;;2.33;;
38487;SDS011;57384;51.986;4.458;2022-11-20T07:51:44;8.90;;;1.95;;
38487;SDS011;57384;51.986;4.458;2022-11-20T07:54:29;10.85;;;2.28;;
38487;SDS011;57384;51.986;4.458;2022-11-20T07:57:13;6.40;;;1.55;;
38487;SDS011;57384;51.986;4.458;2022-11-20T07:59:57;6.60;;;1.80;;
38487;SDS011;57384;51.986;4.458;2022-11-20T08:02:41;8.23;;;2.17;;
38487;SDS011;57384;51.986;4.458;2022-11-20T08:05:25;5.40;;;1.85;;
38487;SDS011;57384;51.986;4.458;2022-11-20T08:08:09;10.43;;;2.90;;
38487;SDS011;57384;51.986;4.458;2022-11-20T08:10:53;8.52;;;3.55;;
38487;SDS011;57384;51.986;4.458;2022-11-20T08:13:43;7.50;;;2.60;;
38487;SDS011;57384;51.986;4.458;2022-11-20T08:16:27;5.47;;;1.95;;
38487;SDS011;57384;51.986;4.458;2022-11-20T08:19:12;9.93;;;2.42;;
38487;SDS011;57384;51.986;4.458;2022-11-20T08:21:57;7.35;;;2.20;;
38487;SDS011;57384;51.986;4.458;2022-11-20T08:24:41;5.85;;;2.30;;
38487;SDS011;57384;51.986;4.458;2022-11-20T08:27:25;6.65;;;1.80;;
38487;SDS011;57384;51.986;4.458;2022-11-20T08:30:10;6.78;;;1.65;;
38487;SDS011;57384;51.986;4.458;2022-11-20T08:32:54;4.85;;;1.45;;
38487;SDS011;57384;51.986;4.458;2022-11-20T08:35:43;5.90;;;1.92;;
38487;SDS011;57384;51.986;4.458;2022-11-20T08:38:28;6.05;;;2.45;;
38487;SDS011;57384;51.986;4.458;2022-11-20T08:41:13;14.13;;;2.78;;
38487;SDS011;57384;51.986;4.458;2022-11-20T08:43:58;10.38;;;2.95;;
38487;SDS011;57384;51.986;4.458;2022-11-20T08:46:43;9.07;;;2.80;;
38487;SDS011;57384;51.986;4.458;2022-11-20T08:49:28;8.10;;;2.47;;
38487;SDS011;57384;51.986;4.458;2022-11-20T08:52:12;9.40;;;2.60;;
38487;SDS011;57384;51.986;4.458;2022-11-20T08:54:56;11.75;;;3.20;;
38487;SDS011;57384;51.986;4.458;2022-11-20T08:57:40;11.05;;;3.25;;
38487;SDS011;57384;51.986;4.458;2022-11-20T09:00:24;7.97;;;1.90;;
38487;SDS011;57384;51.986;4.458;2022-11-20T09:03:08;9.82;;;3.80;;
38487;SDS011;57384;51.986;4.458;2022-11-20T09:05:57;11.32;;;2.95;;
38487;SDS011;57384;51.986;4.458;2022-11-20T09:08:45;10.20;;;4.15;;
38487;SDS011;57384;51.986;4.458;2022-11-20T09:11:29;12.13;;;3.05;;
38487;SDS011;57384;51.986;4.458;2022-11-20T09:14:16;6.30;;;1.98;;
38487;SDS011;57384;51.986;4.458;2022-11-20T09:17:00;10.32;;;3.72;;
38487;SDS011;57384;51.986;4.458;2022-11-20T09:19:44;7.40;;;1.75;;
38487;SDS011;57384;51.986;4.458;2022-11-20T09:22:28;9.98;;;3.35;;
38487;SDS011;57384;51.986;4.458;2022-11-20T09:25:12;7.95;;;2.60;;
38487;SDS011;57384;51.986;4.458;2022-11-20T09:27:57;13.95;;;4.22;;
38487;SDS011;57384;51.986;4.458;2022-11-20T09:30:42;10.40;;;3.90;;
38487;SDS011;57384;51.986;4.458;2022-11-20T09:33:26;10.70;;;3.53;;
38487;SDS011;57384;51.986;4.458;2022-11-20T09:36:10;11.35;;;2.88;;
38487;SDS011;57384;51.986;4.458;2022-11-20T09:38:54;10.18;;;3.60;;
38487;SDS011;57384;51.986;4.458;2022-11-20T09:56:41;11.50;;;3.78;;
38487;SDS011;57384;51.986;4.458;2022-11-20T09:59:46;8.90;;;2.97;;
38487;SDS011;57384;51.986;4.458;2022-11-20T10:06:03;10.90;;;3.92;;
38487;SDS011;57384;51.986;4.458;2022-11-20T10:09:00;12.68;;;3.35;;
38487;SDS011;57384;51.986;4.458;2022-11-20T10:12:23;12.18;;;3.53;;
38487;SDS011;57384;51.986;4.458;2022-11-20T10:18:24;15.25;;;4.60;;
38487;SDS011;57384;51.986;4.458;2022-11-20T10:21:38;13.35;;;4.13;;
38487;SDS011;57384;51.986;4.458;2022-11-20T10:24:47;14.48;;;4.68;;
38487;SDS011;57384;51.986;4.458;2022-11-20T10:30:40;11.73;;;3.30;;
38487;SDS011;57384;51.986;4.458;2022-11-20T10:33:27;18.60;;;4.72;;
38487;SDS011;57384;51.986;4.458;2022-11-20T10:36:18;16.40;;;4.82;;
38487;SDS011;57384;51.986;4.458;2022-11-20T10:39:30;13.18;;;4.30;;
38487;SDS011;57384;51.986;4.458;2022-11-20T10:42:30;8.73;;;3.05;;
38487;SDS011;57384;51.986;4.458;2022-11-20T11:01:51;11.90;;;3.60;;
38487;SDS011;57384;51.986;4.458;2022-11-20T11:04:36;14.68;;;5.13;;
38487;SDS011;57384;51.986;4.458;2022-11-20T11:07:30;15.85;;;3.97;;
38487;SDS011;57384;51.986;4.458;2022-11-20T11:10:24;11.18;;;4.45;;
38487;SDS011;57384;51.986;4.458;2022-11-20T11:13:27;15.00;;;4.93;;
38487;SDS011;57384;51.986;4.458;2022-11-20T11:16:22;16.15;;;4.78;;
38487;SDS011;57384;51.986;4.458;2022-11-20T11:19:12;13.30;;;4.45;;
38487;SDS011;57384;51.986;4.458;2022-11-20T11:21:57;17.38;;;5.28;;
38487;SDS011;57384;51.986;4.458;2022-11-20T11:24:43;23.25;;;6.32;;
38487;SDS011;57384;51.986;4.458;2022-11-20T11:27:44;17.88;;;5.95;;
38487;SDS011;57384;51.986;4.458;2022-11-20T11:30:42;14.25;;;4.20;;
38487;SDS011;57384;51.986;4.458;2022-11-20T11:33:28;12.82;;;4.60;;
38487;SDS011;57384;51.986;4.458;2022-11-20T11:36:19;20.52;;;5.43;;
38487;SDS011;57384;51.986;4.458;2022-11-20T11:39:05;15.98;;;5.05;;
38487;SDS011;57384;51.986;4.458;2022-11-20T11:41:55;18.60;;;6.00;;
38487;SDS011;57384;51.986;4.458;2022-11-20T11:44:43;15.95;;;5.03;;
38487;SDS011;57384;51.986;4.458;2022-11-20T11:47:36;18.60;;;5.65;;
38487;SDS011;57384;51.986;4.458;2022-11-20T11:50:29;21.27;;;6.80;;
38487;SDS011;57384;51.986;4.458;2022-11-20T11:53:14;21.02;;;6.43;;
38487;SDS011;57384;51.986;4.458;2022-11-20T11:56:08;15.45;;;5.47;;
38487;SDS011;57384;51.986;4.458;2022-11-20T11:58:54;22.50;;;6.35;;
38487;SDS011;57384;51.986;4.458;2022-11-20T12:01:47;18.05;;;6.25;;
38487;SDS011;57384;51.986;4.458;2022-11-20T12:04:50;17.17;;;5.57;;
38487;SDS011;57384;51.986;4.458;2022-11-20T12:07:47;17.00;;;5.93;;
38487;SDS011;57384;51.986;4.458;2022-11-20T12:13:34;19.17;;;6.57;;
38487;SDS011;57384;51.986;4.458;2022-11-20T12:16:25;19.10;;;4.97;;
38487;SDS011;57384;51.986;4.458;2022-11-20T12:19:10;16.30;;;5.82;;
38487;SDS011;57384;51.986;4.458;2022-11-20T12:21:59;25.33;;;6.45;;
38487;SDS011;57384;51.986;4.458;2022-11-20T12:25:11;18.55;;;6.03;;
38487;SDS011;57384;51.986;4.458;2022-11-20T12:36:51;21.15;;;6.30;;
38487;SDS011;57384;51.986;4.458;2022-11-20T12:39:41;20.92;;;5.78;;
38487;SDS011;57384;51.986;4.458;2022-11-20T12:51:48;25.10;;;6.65;;
38487;SDS011;57384;51.986;4.458;2022-11-20T12:58:05;20.27;;;7.05;;
38487;SDS011;57384;51.986;4.458;2022-11-20T13:07:18;21.92;;;7.47;;
38487;SDS011;57384;51.986;4.458;2022-11-20T13:10:05;25.13;;;7.17;;
38487;SDS011;57384;51.986;4.458;2022-11-20T13:12:59;23.50;;;4.85;;
38487;SDS011;57384;51.986;4.458;2022-11-20T13:16:03;21.92;;;7.18;;
38487;SDS011;57384;51.986;4.458;2022-11-20T13:19:10;26.10;;;7.22;;
38487;SDS011;57384;51.986;4.458;2022-11-20T13:21:55;17.90;;;7.60;;
38487;SDS011;57384;51.986;4.458;2022-11-20T13:24:40;23.48;;;6.97;;
38487;SDS011;57384;51.986;4.458;2022-11-20T13:27:34;17.88;;;6.07;;
38487;SDS011;57384;51.986;4.458;2022-11-20T13:30:19;18.67;;;6.22;;
38487;SDS011;57384;51.986;4.458;2022-11-20T13:33:07;24.95;;;6.65;;
38487;SDS011;57384;51.986;4.458;2022-11-20T13:36:07;20.02;;;6.57;;
38487;SDS011;57384;51.986;4.458;2022-11-20T13:39:08;21.80;;;6.20;;
38487;SDS011;57384;51.986;4.458;2022-11-20T13:41:56;18.73;;;5.43;;
38487;SDS011;57384;51.986;4.458;2022-11-20T13:44:43;21.13;;;7.22;;
38487;SDS011;57384;51.986;4.458;2022-11-20T13:47:30;23.27;;;6.30;;
38487;SDS011;57384;51.986;4.458;2022-11-20T13:50:15;27.88;;;6.95;;
38487;SDS011;57384;51.986;4.458;2022-11-20T13:53:22;25.98;;;7.40;;
38487;SDS011;57384;51.986;4.458;2022-11-20T14:02:29;26.70;;;7.45;;
38487;SDS011;57384;51.986;4.458;2022-11-20T14:05:17;23.75;;;7.07;;
38487;SDS011;57384;51.986;4.458;2022-11-20T14:08:05;20.63;;;5.72;;
38487;SDS011;57384;51.986;4.458;2022-11-20T14:14:04;25.08;;;6.75;;
38487;SDS011;57384;51.986;4.458;2022-11-20T14:17:34;25.77;;;7.28;;
38487;SDS011;57384;51.986;4.458;2022-11-20T14:20:18;18.27;;;6.30;;
38487;SDS011;57384;51.986;4.458;2022-11-20T14:23:03;19.92;;;7.50;;
38487;SDS011;57384;51.986;4.458;2022-11-20T14:25:47;22.77;;;7.10;;
38487;SDS011;57384;51.986;4.458;2022-11-20T14:28:31;18.40;;;5.93;;
38487;SDS011;57384;51.986;4.458;2022-11-20T14:31:21;28.15;;;9.68;;
38487;SDS011;57384;51.986;4.458;2022-11-20T14:34:22;24.20;;;7.90;;
38487;SDS011;57384;51.986;4.458;2022-11-20T14:37:13;23.67;;;7.07;;
38487;SDS011;57384;51.986;4.458;2022-11-20T14:40:04;19.20;;;5.72;;
38487;SDS011;57384;51.986;4.458;2022-11-20T14:43:26;24.67;;;8.27;;
38487;SDS011;57384;51.986;4.458;2022-11-20T14:46:11;17.95;;;6.18;;
38487;SDS011;57384;51.986;4.458;2022-11-20T14:48:56;19.15;;;6.35;;
38487;SDS011;57384;51.986;4.458;2022-11-20T14:51:44;23.25;;;6.63;;
38487;SDS011;57384;51.986;4.458;2022-11-20T14:54:28;17.23;;;5.20;;
38487;SDS011;57384;51.986;4.458;2022-11-20T15:00:27;20.13;;;6.57;;
38487;SDS011;57384;51.986;4.458;2022-11-20T15:03:15;24.02;;;6.28;;
38487;SDS011;57384;51.986;4.458;2022-11-20T15:06:00;23.52;;;6.90;;
38487;SDS011;57384;51.986;4.458;2022-11-20T15:08:51;24.27;;;6.82;;
38487;SDS011;57384;51.986;4.458;2022-11-20T15:11:39;18.33;;;5.70;;
38487;SDS011;57384;51.986;4.458;2022-11-20T15:14:34;23.23;;;7.80;;
38487;SDS011;57384;51.986;4.458;2022-11-20T15:17:20;26.88;;;6.90;;
38487;SDS011;57384;51.986;4.458;2022-11-20T15:20:24;23.00;;;6.63;;
38487;SDS011;57384;51.986;4.458;2022-11-20T15:23:19;23.17;;;7.10;;
38487;SDS011;57384;51.986;4.458;2022-11-20T15:26:04;21.42;;;6.55;;
38487;SDS011;57384;51.986;4.458;2022-11-20T15:28:51;18.92;;;6.38;;
38487;SDS011;57384;51.986;4.458;2022-11-20T15:31:39;24.77;;;7.28;;
38487;SDS011;57384;51.986;4.458;2022-11-20T15:34:23;23.10;;;5.47;;
38487;SDS011;57384;51.986;4.458;2022-11-20T15:37:07;17.65;;;4.97;;
38487;SDS011;57384;51.986;4.458;2022-11-20T15:39:51;18.27;;;5.60;;
38487;SDS011;57384;51.986;4.458;2022-11-20T15:42:35;24.58;;;6.18;;
38487;SDS011;57384;51.986;4.458;2022-11-20T15:45:19;19.77;;;5.57;;
38487;SDS011;57384;51.986;4.458;2022-11-20T15:54:21;23.83;;;5.82;;
38487;SDS011;57384;51.986;4.458;2022-11-20T15:57:05;17.33;;;5.50;;
38487;SDS011;57384;51.986;4.458;2022-11-20T15:59:50;13.65;;;4.38;;
38487;SDS011;57384;51.986;4.458;2022-11-20T16:02:37;14.55;;;5.68;;
38487;SDS011;57384;51.986;4.458;2022-11-20T16:05:21;22.00;;;5.80;;
38487;SDS011;57384;51.986;4.458;2022-11-20T16:08:08;12.82;;;4.68;;
38487;SDS011;57384;51.986;4.458;2022-11-20T16:10:55;20.17;;;5.70;;
38487;SDS011;57384;51.986;4.458;2022-11-20T16:13:40;28.05;;;7.75;;
38487;SDS011;57384;51.986;4.458;2022-11-20T16:16:27;20.08;;;5.22;;
38487;SDS011;57384;51.986;4.458;2022-11-20T16:51:39;18.10;;;5.30;;
38487;SDS011;57384;51.986;4.458;2022-11-20T16:54:23;14.50;;;5.60;;
38487;SDS011;57384;51.986;4.458;2022-11-20T16:57:07;22.38;;;5.28;;
38487;SDS011;57384;51.986;4.458;2022-11-20T16:59:52;17.65;;;5.30;;
38487;SDS011;57384;51.986;4.458;2022-11-20T17:02:36;15.50;;;4.72;;
38487;SDS011;57384;51.986;4.458;2022-11-20T17:05:20;14.05;;;4.43;;
38487;SDS011;57384;51.986;4.458;2022-11-20T17:08:04;14.75;;;5.38;;
38487;SDS011;57384;51.986;4.458;2022-11-20T17:10:48;17.75;;;5.80;;
38487;SDS011;57384;51.986;4.458;2022-11-20T17:13:33;19.63;;;4.25;;
38487;SDS011;57384;51.986;4.458;2022-11-20T17:16:19;16.98;;;4.82;;
38487;SDS011;57384;51.986;4.458;2022-11-20T17:19:05;15.80;;;4.80;;
38487;SDS011;57384;51.986;4.458;2022-11-20T17:21:49;18.95;;;4.63;;
38487;SDS011;57384;51.986;4.458;2022-11-20T17:24:33;17.50;;;5.25;;
38487;SDS011;57384;51.986;4.458;2022-11-20T17:27:17;13.77;;;4.80;;
38487;SDS011;57384;51.986;4.458;2022-11-20T17:30:01;16.00;;;4.70;;
38487;SDS011;57384;51.986;4.458;2022-11-20T17:32:46;10.50;;;4.00;;
38487;SDS011;57384;51.986;4.458;2022-11-20T17:35:30;15.48;;;4.35;;
38487;SDS011;57384;51.986;4.458;2022-11-20T17:38:14;15.75;;;4.05;;
38487;SDS011;57384;51.986;4.458;2022-11-20T17:41:05;11.55;;;3.85;;
38487;SDS011;57384;51.986;4.458;2022-11-20T17:43:54;14.93;;;4.60;;
38487;SDS011;57384;51.986;4.458;2022-11-20T17:46:39;14.45;;;4.60;;
38487;SDS011;57384;51.986;4.458;2022-11-20T17:49:23;14.45;;;4.38;;
38487;SDS011;57384;51.986;4.458;2022-11-20T17:52:07;14.27;;;4.38;;
38487;SDS011;57384;51.986;4.458;2022-11-20T17:54:51;14.25;;;4.35;;
38487;SDS011;57384;51.986;4.458;2022-11-20T17:57:35;11.77;;;4.20;;
38487;SDS011;57384;51.986;4.458;2022-11-20T18:00:20;10.10;;;3.72;;
38487;SDS011;57384;51.986;4.458;2022-11-20T18:03:04;15.00;;;4.18;;
38487;SDS011;57384;51.986;4.458;2022-11-20T18:05:48;15.00;;;4.68;;
38487;SDS011;57384;51.986;4.458;2022-11-20T18:08:32;14.15;;;4.50;;
38487;SDS011;57384;51.986;4.458;2022-11-20T18:11:20;11.02;;;3.60;;
38487;SDS011;57384;51.986;4.458;2022-11-20T18:14:09;12.40;;;3.35;;
38487;SDS011;57384;51.986;4.458;2022-11-20T18:16:56;11.85;;;3.30;;
38487;SDS011;57384;51.986;4.458;2022-11-20T18:19:44;11.10;;;2.90;;
38487;SDS011;57384;51.986;4.458;2022-11-20T18:22:32;11.80;;;3.78;;
38487;SDS011;57384;51.986;4.458;2022-11-20T18:25:16;10.98;;;2.30;;
38487;SDS011;57384;51.986;4.458;2022-11-20T18:28:00;15.75;;;3.75;;
38487;SDS011;57384;51.986;4.458;2022-11-20T18:30:44;9.95;;;2.92;;
38487;SDS011;57384;51.986;4.458;2022-11-20T18:33:28;11.10;;;3.13;;
38487;SDS011;57384;51.986;4.458;2022-11-20T18:36:17;10.27;;;2.25;;
38487;SDS011;57384;51.986;4.458;2022-11-20T18:39:06;12.05;;;3.53;;
38487;SDS011;57384;51.986;4.458;2022-11-20T18:41:52;8.80;;;2.83;;
38487;SDS011;57384;51.986;4.458;2022-11-20T18:44:36;15.98;;;4.72;;
38487;SDS011;57384;51.986;4.458;2022-11-20T18:47:24;21.73;;;4.75;;
38487;SDS011;57384;51.986;4.458;2022-11-20T18:50:10;11.70;;;4.18;;